Impacts TAF Board
For situational awareness. Not to be used for flight planning purposes.
IDs:

KRIL - Rifle/Garfield Cnty, CO, US

Issued at 1121 UTC 07 Jul 2020
Updated at 1339 UTC 07 Jul 2020
Potential Impact None Slight Moderate High
Time<<08/02Z 08/03Z 08/04Z 08/05Z 08/06Z 08/07Z 08/08Z 08/09Z 08/10Z 08/11Z 08/12Z 08/13Z 08/14Z>>
Type PRVL PRVL PRVL PRVL PRVL PRVL PRVL PRVL PRVL PRVL
VIS >6 >6 >6 >6 >6 >6 >6 >6 >6 >6
CIG -- -- -- -- -- -- -- -- -- --
Cover SKC SKC SKC SKC SKC SKC SKC SKC SKC SKC
FltCat VFR VFR VFR VFR VFR VFR VFR VFR VFR VFR
WX -- -- -- -- -- -- -- -- -- --
WDir 210 210 210 210 VRB VRB VRB VRB VRB VRB
WSpd 12 12 12 12 3 3 3 3 3 3
WGst 20 20 20 20 -- -- -- -- -- --
Raw TAF
KRIL 071121Z 0712/0812 16004KT P6SM FEW200
  FM071900 25018G27KT P6SM FEW150 FEW250
  FM072100 24022G35KT P6SM SKC
  FM080200 21012G20KT P6SM SKC
  FM080600 VRB03KT P6SM SKC


METAR Board
Radar Display
Forecast Discussion
For situational awareness. Not to be used for flight planning purposes.